createdAt,value
2019-05-19T00:00:01.841Z,16.07
2019-05-19T00:01:01.820Z,16.02
2019-05-19T00:02:01.774Z,16.01
2019-05-19T00:03:01.765Z,15.97
2019-05-19T00:04:01.749Z,16.07
2019-05-19T00:05:01.776Z,15.97
2019-05-19T00:06:01.727Z,15.92
2019-05-19T00:07:01.724Z,15.90
2019-05-19T00:08:01.706Z,16.00
2019-05-19T00:09:01.696Z,15.92
2019-05-19T00:10:01.729Z,15.90
2019-05-19T00:11:01.705Z,15.94
2019-05-19T00:12:01.663Z,15.92
2019-05-19T00:13:01.658Z,15.90
2019-05-19T00:14:01.647Z,15.96
2019-05-19T00:15:01.628Z,15.94
2019-05-19T00:16:01.647Z,15.93
2019-05-19T00:17:01.627Z,15.83
2019-05-19T00:18:01.650Z,15.90
2019-05-19T00:19:01.586Z,15.96
2019-05-19T00:20:01.577Z,15.93
2019-05-19T00:21:01.594Z,15.86
2019-05-19T00:22:01.553Z,15.83
2019-05-19T00:23:01.543Z,15.92
2019-05-19T00:24:01.546Z,15.90
2019-05-19T00:25:01.556Z,15.97
2019-05-19T00:26:01.511Z,15.89
2019-05-19T00:27:01.498Z,16.00
2019-05-19T00:28:01.487Z,15.89
2019-05-19T00:29:01.480Z,15.93
2019-05-19T00:30:01.478Z,15.97
2019-05-19T00:31:01.480Z,15.90
2019-05-19T00:32:01.445Z,15.86
2019-05-19T00:33:01.433Z,15.82
2019-05-19T00:34:01.420Z,15.82
2019-05-19T00:35:01.497Z,15.83
2019-05-19T00:36:01.435Z,15.69
2019-05-19T00:37:01.391Z,15.76
2019-05-19T00:38:01.379Z,15.83
2019-05-19T00:39:01.366Z,15.78
2019-05-19T00:40:01.361Z,15.82
2019-05-19T00:41:01.347Z,15.82
2019-05-19T00:42:01.360Z,15.76
2019-05-19T00:43:01.326Z,15.82
2019-05-19T00:44:01.318Z,15.76
2019-05-19T00:45:01.306Z,15.65
2019-05-19T00:46:01.294Z,15.75
2019-05-19T00:47:01.323Z,15.72
2019-05-19T00:48:01.270Z,15.74
2019-05-19T00:49:01.261Z,15.74
2019-05-19T00:50:01.252Z,15.62
2019-05-19T00:51:01.239Z,15.69
2019-05-19T00:52:01.245Z,15.65
2019-05-19T00:53:01.260Z,15.65
2019-05-19T00:54:01.206Z,15.64
2019-05-19T00:55:01.224Z,15.68
2019-05-19T00:56:01.187Z,15.71
2019-05-19T00:57:01.177Z,15.59
2019-05-19T00:58:01.166Z,15.59
2019-05-19T00:59:01.210Z,15.62
2019-05-19T01:00:01.142Z,15.67
2019-05-19T01:01:01.131Z,15.65
2019-05-19T01:02:01.120Z,15.54
2019-05-19T01:03:01.109Z,15.68
2019-05-19T01:04:01.108Z,15.59
2019-05-19T01:05:01.119Z,15.74
2019-05-19T01:06:01.086Z,15.62
2019-05-19T01:07:01.066Z,15.74
2019-05-19T01:08:01.055Z,15.62
2019-05-19T01:09:01.045Z,15.68
2019-05-19T01:10:01.071Z,15.74
2019-05-19T01:11:01.024Z,15.67
2019-05-19T01:12:01.012Z,15.60
2019-05-19T01:13:01.003Z,15.69
2019-05-19T01:14:00.991Z,15.62
2019-05-19T01:15:00.979Z,15.65
2019-05-19T01:16:00.997Z,15.65
2019-05-19T01:17:00.959Z,15.56
2019-05-19T01:18:00.947Z,15.53
2019-05-19T01:19:00.941Z,15.57
2019-05-19T01:20:00.924Z,15.57
2019-05-19T01:21:00.950Z,15.49
2019-05-19T01:22:00.909Z,15.49
2019-05-19T01:23:00.896Z,15.51
2019-05-19T01:24:00.881Z,15.44
2019-05-19T01:25:00.871Z,15.49
2019-05-19T01:26:00.873Z,15.46
2019-05-19T01:27:00.880Z,15.51
2019-05-19T01:28:00.839Z,15.43
2019-05-19T01:29:00.830Z,15.43
2019-05-19T01:30:00.818Z,15.39
2019-05-19T01:31:00.808Z,15.38
2019-05-19T01:32:00.829Z,15.31
2019-05-19T01:33:00.783Z,15.28
2019-05-19T01:34:00.771Z,15.36
2019-05-19T01:35:00.760Z,15.38
2019-05-19T01:36:00.751Z,15.34
2019-05-19T01:37:00.741Z,15.36
2019-05-19T01:38:00.750Z,15.31
2019-05-19T01:39:00.715Z,15.34
2019-05-19T01:40:00.707Z,15.27
2019-05-19T01:41:00.694Z,15.27
2019-05-19T01:42:00.685Z,15.32
2019-05-19T01:43:00.708Z,15.34
2019-05-19T01:44:00.660Z,15.32
2019-05-19T01:45:00.651Z,15.27
2019-05-19T01:46:00.640Z,15.28
2019-05-19T01:47:00.628Z,15.19
2019-05-19T01:48:00.618Z,15.21
2019-05-19T01:49:00.644Z,15.17
2019-05-19T01:50:16.840Z,15.14
2019-05-19T01:51:01.583Z,15.11
2019-05-19T01:52:00.576Z,15.11
2019-05-19T01:53:00.562Z,15.06
2019-05-19T01:54:00.551Z,15.02
2019-05-19T01:55:00.578Z,15.09
2019-05-19T01:56:00.526Z,15.07
2019-05-19T01:57:00.518Z,14.98
2019-05-19T01:58:00.507Z,15.03
2019-05-19T01:59:00.497Z,14.95
2019-05-19T02:00:00.483Z,14.95
2019-05-19T02:01:00.508Z,14.96
2019-05-19T02:02:00.462Z,15.07
2019-05-19T02:03:00.454Z,14.98
2019-05-19T02:04:00.445Z,14.95
2019-05-19T02:05:00.428Z,14.94
2019-05-19T02:06:00.421Z,14.89
2019-05-19T02:07:00.440Z,14.95
2019-05-19T02:08:00.395Z,14.99
2019-05-19T02:09:00.383Z,14.91
2019-05-19T02:10:00.372Z,14.84
2019-05-19T02:11:00.362Z,14.91
2019-05-19T02:12:00.386Z,14.88
2019-05-19T02:13:00.340Z,14.88
2019-05-19T02:14:00.329Z,14.86
2019-05-19T02:15:00.317Z,14.86
2019-05-19T02:16:00.306Z,14.84
2019-05-19T02:17:00.296Z,14.92
2019-05-19T02:18:00.310Z,14.86
2019-05-19T02:19:00.276Z,14.84
2019-05-19T02:20:00.267Z,14.83
2019-05-19T02:21:00.255Z,14.86
2019-05-19T02:22:00.241Z,14.81
2019-05-19T02:23:00.264Z,14.86
2019-05-19T02:24:00.217Z,14.84
2019-05-19T02:25:00.210Z,14.91
2019-05-19T02:26:00.197Z,14.89
2019-05-19T02:27:00.188Z,14.89
2019-05-19T02:28:00.175Z,14.89
2019-05-19T02:29:00.190Z,14.96
2019-05-19T02:30:00.156Z,14.88
2019-05-19T02:31:00.141Z,14.91
2019-05-19T02:32:00.129Z,14.91
2019-05-19T02:33:00.121Z,14.89
2019-05-19T02:34:00.158Z,14.94
2019-05-19T02:35:00.098Z,14.84
2019-05-19T02:36:00.115Z,14.83
2019-05-19T02:37:00.078Z,14.77
2019-05-19T02:38:00.065Z,14.69
2019-05-19T02:39:00.054Z,14.72
2019-05-19T02:40:00.065Z,14.72
2019-05-19T02:41:00.030Z,14.75
2019-05-19T02:42:00.022Z,14.77
2019-05-19T02:43:00.007Z,14.69
2019-05-19T02:43:59.997Z,14.73
2019-05-19T02:45:00.021Z,14.73
2019-05-19T02:45:59.975Z,14.73
2019-05-19T02:46:59.963Z,14.69
2019-05-19T02:47:59.955Z,14.69
2019-05-19T02:48:59.970Z,14.64
2019-05-19T02:49:59.930Z,14.58
2019-05-19T02:50:59.988Z,14.65
2019-05-19T02:51:59.907Z,14.60
2019-05-19T02:52:59.897Z,14.62
2019-05-19T02:53:59.889Z,14.50
2019-05-19T02:54:59.875Z,14.64
2019-05-19T02:55:59.864Z,14.61
2019-05-19T02:56:59.890Z,14.58
2019-05-19T02:57:59.844Z,14.55
2019-05-19T02:58:59.834Z,14.61
2019-05-19T02:59:59.819Z,14.57
2019-05-19T03:00:59.810Z,14.57
2019-05-19T03:01:59.797Z,14.60
2019-05-19T03:02:59.809Z,14.68
2019-05-19T03:03:59.778Z,14.60
2019-05-19T03:04:59.765Z,14.60
2019-05-19T03:05:59.754Z,14.58
2019-05-19T03:06:59.743Z,14.51
2019-05-19T03:07:59.765Z,14.52
2019-05-19T03:08:59.718Z,14.58
2019-05-19T03:09:59.712Z,14.50
2019-05-19T03:10:59.700Z,14.46
2019-05-19T03:11:59.686Z,14.50
2019-05-19T03:12:59.677Z,14.51
2019-05-19T03:13:59.698Z,14.46
2019-05-19T03:14:59.659Z,14.46
2019-05-19T03:15:59.644Z,14.33
2019-05-19T03:16:59.631Z,14.37
2019-05-19T03:17:59.620Z,14.45
2019-05-19T03:18:59.611Z,14.43
2019-05-19T03:19:59.625Z,14.50
2019-05-19T03:21:10.291Z,14.54
2019-05-19T03:22:00.579Z,14.51
2019-05-19T03:22:59.566Z,14.42
2019-05-19T03:23:59.557Z,14.47
2019-05-19T03:24:59.618Z,14.52
2019-05-19T03:25:59.532Z,14.51
2019-05-19T03:26:59.525Z,14.54
2019-05-19T03:27:59.513Z,14.45
2019-05-19T03:28:59.505Z,14.50
2019-05-19T03:29:59.492Z,14.47
2019-05-19T03:30:59.520Z,14.61
2019-05-19T03:31:59.470Z,14.45
2019-05-19T03:32:59.458Z,14.51
2019-05-19T03:33:59.448Z,14.46
2019-05-19T03:34:59.453Z,14.54
2019-05-19T03:35:59.425Z,14.51
2019-05-19T03:36:59.447Z,14.47
2019-05-19T03:37:59.409Z,14.47
2019-05-19T03:38:59.392Z,14.46
2019-05-19T03:39:59.381Z,14.51
2019-05-19T03:40:59.371Z,14.46
2019-05-19T03:41:59.362Z,14.46
2019-05-19T03:42:59.372Z,14.51
2019-05-19T03:43:59.340Z,14.51
2019-05-19T03:44:59.326Z,14.51
2019-05-19T03:45:59.316Z,14.54
2019-05-19T03:46:59.303Z,14.50
2019-05-19T03:47:59.332Z,14.46
2019-05-19T03:48:59.289Z,14.47
2019-05-19T03:49:59.271Z,14.54
2019-05-19T03:50:59.261Z,14.45
2019-05-19T03:51:59.248Z,14.55
2019-05-19T03:52:59.246Z,14.50
2019-05-19T03:53:59.261Z,14.57
2019-05-19T03:54:59.215Z,14.58
2019-05-19T03:55:59.207Z,14.55
2019-05-19T03:56:59.211Z,14.51
2019-05-19T03:57:59.185Z,14.52
2019-05-19T03:58:59.181Z,14.58
2019-05-19T03:59:59.184Z,14.55
2019-05-19T04:00:59.150Z,14.45
2019-05-19T04:01:59.146Z,14.55
2019-05-19T04:02:59.129Z,14.55
2019-05-19T04:03:59.128Z,14.46
2019-05-19T04:04:59.143Z,14.61
2019-05-19T04:05:59.095Z,14.58
2019-05-19T04:06:59.087Z,14.58
2019-05-19T04:07:59.074Z,14.62
2019-05-19T04:08:59.062Z,14.57
2019-05-19T04:09:59.052Z,14.55
2019-05-19T04:10:59.077Z,14.62
2019-05-19T04:11:59.046Z,14.57
2019-05-19T04:12:59.021Z,14.65
2019-05-19T04:13:59.007Z,14.61
2019-05-19T04:14:58.999Z,14.62
2019-05-19T04:15:58.990Z,14.70
2019-05-19T04:16:59.000Z,14.75
2019-05-19T04:17:58.969Z,14.69
2019-05-19T04:18:58.953Z,14.72
2019-05-19T04:19:58.943Z,14.78
2019-05-19T04:20:58.931Z,14.91
2019-05-19T04:21:58.971Z,14.91
2019-05-19T04:22:58.914Z,14.83
2019-05-19T04:23:58.900Z,14.84
2019-05-19T04:24:58.889Z,14.94
2019-05-19T04:25:58.880Z,14.89
2019-05-19T04:26:58.863Z,14.89
2019-05-19T04:27:58.890Z,14.86
2019-05-19T04:28:58.843Z,14.92
2019-05-19T04:29:58.831Z,14.91
2019-05-19T04:30:58.822Z,14.96
2019-05-19T04:31:58.809Z,14.94
2019-05-19T04:32:58.799Z,15.02
2019-05-19T04:33:58.821Z,15.02
2019-05-19T04:34:58.778Z,15.09
2019-05-19T04:35:58.766Z,15.10
2019-05-19T04:36:58.753Z,15.07
2019-05-19T04:37:58.743Z,15.14
2019-05-19T04:38:58.732Z,15.16
2019-05-19T04:39:58.747Z,15.11
2019-05-19T04:40:58.711Z,15.23
2019-05-19T04:41:58.697Z,15.32
2019-05-19T04:42:58.690Z,15.36
2019-05-19T04:43:58.677Z,15.38
2019-05-19T04:44:58.704Z,15.41
2019-05-19T04:45:58.658Z,15.43
2019-05-19T04:46:58.647Z,15.49
2019-05-19T04:47:58.636Z,15.44
2019-05-19T04:48:58.624Z,15.49
2019-05-19T04:49:58.621Z,15.44
2019-05-19T04:50:58.637Z,15.50
2019-05-19T04:52:06.681Z,15.44
2019-05-19T04:52:59.578Z,15.47
2019-05-19T04:53:58.564Z,15.53
2019-05-19T04:54:58.563Z,15.60
2019-05-19T04:55:58.544Z,15.59
2019-05-19T04:56:58.561Z,15.59
2019-05-19T04:57:58.526Z,15.65
2019-05-19T04:58:58.509Z,15.69
2019-05-19T04:59:58.499Z,15.62
2019-05-19T05:00:58.488Z,15.69
2019-05-19T05:01:58.514Z,15.82
2019-05-19T05:02:58.470Z,15.84
2019-05-19T05:03:58.456Z,15.87
2019-05-19T05:04:58.450Z,15.82
2019-05-19T05:05:58.431Z,15.96
2019-05-19T05:06:58.436Z,15.93
2019-05-19T05:07:58.448Z,16.02
2019-05-19T05:08:58.402Z,16.05
2019-05-19T05:09:58.389Z,16.02
2019-05-19T05:10:58.379Z,16.17
2019-05-19T05:11:58.368Z,16.21
2019-05-19T05:12:58.361Z,16.35
2019-05-19T05:13:58.372Z,16.30
2019-05-19T05:14:58.335Z,16.38
2019-05-19T05:15:58.325Z,16.43
2019-05-19T05:16:58.314Z,16.46
2019-05-19T05:17:58.302Z,16.50
2019-05-19T05:18:58.328Z,16.53
2019-05-19T05:19:58.288Z,16.60
2019-05-19T05:20:58.272Z,16.57
2019-05-19T05:21:58.262Z,16.58
2019-05-19T05:22:58.249Z,16.61
2019-05-19T05:23:58.259Z,16.63
2019-05-19T05:24:58.265Z,16.63
2019-05-19T05:25:58.216Z,16.60
2019-05-19T05:26:58.203Z,16.63
2019-05-19T05:27:58.192Z,16.64
2019-05-19T05:28:58.183Z,16.63
2019-05-19T05:29:58.172Z,16.71
2019-05-19T05:30:58.197Z,16.58
2019-05-19T05:31:58.150Z,16.60
2019-05-19T05:32:58.139Z,16.64
2019-05-19T05:33:58.126Z,16.67
2019-05-19T05:34:58.115Z,16.78
2019-05-19T05:35:58.103Z,16.75
2019-05-19T05:36:58.117Z,16.76
2019-05-19T05:37:58.085Z,16.82
2019-05-19T05:38:58.072Z,16.81
2019-05-19T05:39:58.059Z,16.83
2019-05-19T05:40:58.051Z,16.88
2019-05-19T05:41:58.080Z,16.76
2019-05-19T05:42:58.027Z,16.79
2019-05-19T05:43:58.016Z,16.78
2019-05-19T05:44:58.059Z,16.85
2019-05-19T05:45:57.993Z,16.91
2019-05-19T05:46:57.981Z,16.91
2019-05-19T05:47:58.012Z,16.91
2019-05-19T05:48:57.972Z,16.96
2019-05-19T05:49:57.950Z,16.96
2019-05-19T05:50:57.937Z,16.96
2019-05-19T05:51:57.926Z,16.91
2019-05-19T05:52:57.919Z,16.96
2019-05-19T05:53:57.929Z,17.01
2019-05-19T05:54:57.893Z,17.06
2019-05-19T05:55:57.883Z,17.06
2019-05-19T05:56:57.873Z,17.11
2019-05-19T05:57:57.867Z,17.12
2019-05-19T05:58:57.888Z,17.15
2019-05-19T05:59:57.841Z,17.16
2019-05-19T06:00:57.827Z,17.30
2019-05-19T06:01:57.818Z,17.23
2019-05-19T06:02:57.821Z,17.30
2019-05-19T06:03:57.795Z,17.28
2019-05-19T06:04:57.823Z,17.36
2019-05-19T06:05:57.773Z,17.41
2019-05-19T06:06:57.767Z,17.40
2019-05-19T06:07:57.750Z,17.54
2019-05-19T06:08:57.741Z,17.58
2019-05-19T06:09:57.730Z,17.66
2019-05-19T06:10:57.742Z,17.68
2019-05-19T06:11:57.716Z,17.78
2019-05-19T06:12:57.699Z,17.79
2019-05-19T06:13:57.687Z,17.89
2019-05-19T06:14:57.678Z,17.82
2019-05-19T06:15:57.705Z,17.77
2019-05-19T06:16:57.653Z,17.71
2019-05-19T06:17:57.642Z,17.75
2019-05-19T06:18:57.633Z,17.72
2019-05-19T06:19:57.620Z,17.74
2019-05-19T06:20:57.610Z,17.71
2019-05-19T06:21:57.635Z,17.82
2019-05-19T06:22:57.590Z,17.77
2019-05-19T06:23:57.577Z,17.86
2019-05-19T06:24:59.280Z,17.74
2019-05-19T06:25:57.558Z,17.70
2019-05-19T06:26:57.546Z,17.66
2019-05-19T06:27:57.569Z,17.68
2019-05-19T06:28:57.521Z,17.63
2019-05-19T06:29:57.512Z,17.75
2019-05-19T06:30:57.502Z,17.87
2019-05-19T06:31:57.490Z,17.89
2019-05-19T06:32:57.480Z,17.89
2019-05-19T06:33:57.491Z,17.90
2019-05-19T06:34:57.457Z,18.08
2019-05-19T06:35:57.445Z,18.07
2019-05-19T06:36:57.435Z,18.12
2019-05-19T06:37:57.424Z,18.18
2019-05-19T06:38:57.449Z,18.25
2019-05-19T06:39:57.401Z,18.36
2019-05-19T06:40:57.389Z,18.44
2019-05-19T06:41:57.379Z,18.48
2019-05-19T06:42:57.369Z,18.45
2019-05-19T06:43:57.359Z,18.48
2019-05-19T06:44:57.384Z,18.55
2019-05-19T06:45:57.335Z,18.63
2019-05-19T06:46:57.326Z,18.65
2019-05-19T06:47:57.313Z,18.65
2019-05-19T06:48:57.304Z,18.66
2019-05-19T06:49:57.291Z,18.75
2019-05-19T06:50:57.307Z,18.67
2019-05-19T06:51:57.269Z,18.80
2019-05-19T06:53:12.864Z,18.78
2019-05-19T06:53:58.245Z,18.80
2019-05-19T06:54:57.235Z,19.02
2019-05-19T06:55:57.260Z,19.04
2019-05-19T06:56:57.219Z,19.06
2019-05-19T06:57:57.249Z,19.11
2019-05-19T06:58:57.198Z,19.22
2019-05-19T06:59:57.184Z,19.14
2019-05-19T07:00:59.093Z,19.32
2019-05-19T07:01:57.196Z,19.32
2019-05-19T07:02:57.149Z,19.43
2019-05-19T07:03:57.143Z,19.47
2019-05-19T07:04:57.129Z,19.50
2019-05-19T07:05:57.117Z,19.58
2019-05-19T07:06:57.165Z,19.63
2019-05-19T07:07:57.119Z,19.73
2019-05-19T07:08:57.085Z,19.77
2019-05-19T07:09:58.819Z,19.84
2019-05-19T07:10:57.144Z,19.86
2019-05-19T07:11:57.055Z,19.95
2019-05-19T07:12:57.078Z,19.94
2019-05-19T07:13:57.071Z,19.95
2019-05-19T07:14:57.027Z,20.01
2019-05-19T07:15:57.007Z,20.02
2019-05-19T07:16:56.997Z,20.14
2019-05-19T07:17:56.985Z,20.05
2019-05-19T07:18:56.998Z,20.16
2019-05-19T07:19:56.962Z,20.17
2019-05-19T07:20:56.980Z,20.10
2019-05-19T07:21:56.938Z,20.20
2019-05-19T07:22:56.929Z,20.24
2019-05-19T07:23:56.917Z,20.21
2019-05-19T07:24:56.908Z,20.28
2019-05-19T07:25:56.932Z,20.29
2019-05-19T07:26:56.886Z,20.31
2019-05-19T07:27:56.874Z,20.48
2019-05-19T07:28:58.976Z,20.48
2019-05-19T07:29:56.855Z,20.59
2019-05-19T07:30:56.847Z,20.47
2019-05-19T07:31:56.869Z,20.48
2019-05-19T07:32:56.824Z,20.47
2019-05-19T07:33:56.810Z,20.55
2019-05-19T07:34:56.799Z,20.55
2019-05-19T07:35:56.787Z,20.59
2019-05-19T07:36:56.779Z,20.55
2019-05-19T07:37:56.793Z,20.66
2019-05-19T07:38:56.756Z,20.76
2019-05-19T07:39:56.745Z,20.66
2019-05-19T07:40:56.742Z,20.76
2019-05-19T07:41:56.725Z,20.80
2019-05-19T07:42:56.749Z,20.87
2019-05-19T07:43:56.703Z,20.99
2019-05-19T07:44:56.692Z,21.07
2019-05-19T07:45:56.681Z,21.09
2019-05-19T07:46:56.676Z,21.17
2019-05-19T07:47:56.661Z,21.21
2019-05-19T07:48:56.684Z,21.19
2019-05-19T07:49:56.638Z,21.28
2019-05-19T07:50:56.628Z,21.25
2019-05-19T07:51:56.619Z,21.34
2019-05-19T07:52:56.605Z,21.38
2019-05-19T07:53:56.593Z,21.49
2019-05-19T07:54:56.617Z,21.58
2019-05-19T07:55:56.576Z,21.50
2019-05-19T07:56:56.564Z,21.59
2019-05-19T07:57:56.549Z,21.69
2019-05-19T07:58:56.539Z,21.72
2019-05-19T07:59:56.530Z,21.82
2019-05-19T08:00:56.557Z,21.80
2019-05-19T08:01:56.510Z,21.80
2019-05-19T08:02:56.497Z,21.94
2019-05-19T08:03:56.697Z,21.91
2019-05-19T08:04:56.474Z,21.91
2019-05-19T08:05:57.123Z,22.06
2019-05-19T08:06:56.494Z,21.98
2019-05-19T08:07:56.440Z,21.92
2019-05-19T08:08:56.428Z,22.03
2019-05-19T08:09:56.416Z,22.03
2019-05-19T08:10:56.406Z,22.15
2019-05-19T08:11:56.397Z,22.25
2019-05-19T08:12:56.409Z,22.15
2019-05-19T08:13:56.401Z,22.18
2019-05-19T08:14:56.365Z,22.17
2019-05-19T08:15:56.358Z,22.30
2019-05-19T08:16:56.346Z,22.25
2019-05-19T08:17:56.369Z,22.35
2019-05-19T08:18:56.328Z,22.43
2019-05-19T08:19:56.311Z,22.43
2019-05-19T08:20:56.301Z,22.47
2019-05-19T08:21:56.333Z,22.49
2019-05-19T08:22:56.278Z,22.54
2019-05-19T08:24:00.534Z,22.52
2019-05-19T08:24:56.257Z,22.65
2019-05-19T08:25:56.254Z,22.68
2019-05-19T08:26:56.239Z,22.70
2019-05-19T08:28:06.510Z,22.76
2019-05-19T08:28:57.252Z,22.77
2019-05-19T08:29:56.207Z,22.76
2019-05-19T08:30:56.203Z,22.91
2019-05-19T08:31:56.296Z,22.92
2019-05-19T08:32:56.183Z,22.97
2019-05-19T08:33:56.324Z,22.95
2019-05-19T08:34:56.176Z,23.00
2019-05-19T08:35:56.141Z,23.04
2019-05-19T08:36:56.128Z,23.00
2019-05-19T08:37:56.120Z,23.12
2019-05-19T08:38:56.107Z,23.23
2019-05-19T08:39:56.132Z,23.25
2019-05-19T08:40:56.099Z,23.36
2019-05-19T08:41:56.072Z,23.38
2019-05-19T08:42:56.061Z,23.39
2019-05-19T08:43:56.121Z,23.46
2019-05-19T08:44:56.043Z,23.48
2019-05-19T08:45:56.066Z,23.51
2019-05-19T08:46:56.018Z,23.50
2019-05-19T08:47:56.012Z,23.43
2019-05-19T08:48:58.419Z,23.43
2019-05-19T08:49:55.990Z,23.38
2019-05-19T08:50:55.976Z,23.42
2019-05-19T08:51:56.002Z,23.48
2019-05-19T08:52:55.954Z,23.54
2019-05-19T08:53:56.075Z,23.58
2019-05-19T08:54:55.933Z,23.65
2019-05-19T08:55:55.925Z,23.61
2019-05-19T08:56:55.911Z,23.72
2019-05-19T08:57:55.934Z,23.76
2019-05-19T08:58:55.890Z,23.79
2019-05-19T08:59:55.879Z,23.65
2019-05-19T09:00:55.869Z,23.60
2019-05-19T09:01:55.859Z,23.76
2019-05-19T09:02:55.846Z,23.73
2019-05-19T09:03:55.873Z,23.68
2019-05-19T09:04:55.829Z,23.66
2019-05-19T09:05:55.816Z,23.68
2019-05-19T09:06:55.806Z,23.79
2019-05-19T09:07:55.792Z,23.85
2019-05-19T09:08:55.781Z,23.84
2019-05-19T09:09:55.813Z,23.94
2019-05-19T09:10:55.761Z,23.95
2019-05-19T09:11:55.748Z,23.95
2019-05-19T09:12:55.739Z,24.03
2019-05-19T09:13:55.728Z,24.20
2019-05-19T09:14:55.716Z,24.05
2019-05-19T09:15:55.743Z,24.06
2019-05-19T09:16:55.695Z,23.97
2019-05-19T09:17:55.684Z,24.06
2019-05-19T09:18:55.672Z,24.15
2019-05-19T09:19:55.662Z,24.09
2019-05-19T09:20:55.651Z,24.12
2019-05-19T09:21:55.675Z,24.16
2019-05-19T09:22:55.630Z,24.10
2019-05-19T09:23:55.619Z,24.16
2019-05-19T09:24:55.607Z,24.10
2019-05-19T09:25:55.613Z,24.02
2019-05-19T09:26:55.585Z,24.00
2019-05-19T09:27:55.616Z,23.88
2019-05-19T09:28:55.564Z,23.85
2019-05-19T09:29:55.557Z,23.97
2019-05-19T09:30:55.542Z,24.03
2019-05-19T09:31:55.530Z,24.03
2019-05-19T09:32:55.520Z,24.13
2019-05-19T09:33:55.544Z,24.09
2019-05-19T09:34:55.499Z,23.97
2019-05-19T09:35:55.489Z,23.94
2019-05-19T09:36:55.476Z,24.02
2019-05-19T09:37:55.464Z,24.03
2019-05-19T09:38:55.457Z,24.00
2019-05-19T09:39:55.487Z,23.97
2019-05-19T09:40:55.436Z,24.03
2019-05-19T09:41:55.420Z,24.18
2019-05-19T09:42:55.413Z,24.12
2019-05-19T09:43:55.398Z,24.20
2019-05-19T09:44:55.387Z,24.16
2019-05-19T09:45:55.424Z,24.20
2019-05-19T09:46:55.365Z,24.20
2019-05-19T09:47:55.358Z,24.22
2019-05-19T09:48:55.342Z,24.32
2019-05-19T09:49:55.337Z,24.20
2019-05-19T09:50:55.359Z,24.34
2019-05-19T09:51:55.369Z,24.35
2019-05-19T09:52:55.300Z,24.45
2019-05-19T09:53:55.292Z,24.43
2019-05-19T09:54:55.278Z,24.40
2019-05-19T09:55:55.267Z,24.45
2019-05-19T09:56:55.259Z,24.52
2019-05-19T09:57:55.281Z,24.53
2019-05-19T09:58:55.235Z,24.64
2019-05-19T09:59:55.225Z,24.73
2019-05-19T10:00:55.228Z,24.69
2019-05-19T10:01:55.203Z,24.80
2019-05-19T10:02:55.193Z,24.80
2019-05-19T10:03:55.221Z,24.85
2019-05-19T10:04:55.172Z,24.83
2019-05-19T10:05:55.161Z,24.65
2019-05-19T10:06:55.168Z,24.73
2019-05-19T10:07:55.138Z,24.85
2019-05-19T10:08:55.130Z,24.88
2019-05-19T10:09:55.160Z,24.85
2019-05-19T10:10:55.115Z,24.84
2019-05-19T10:11:55.097Z,24.88
2019-05-19T10:12:55.088Z,24.96
2019-05-19T10:13:55.078Z,25.09
2019-05-19T10:14:55.064Z,25.21
2019-05-19T10:15:55.089Z,25.14
2019-05-19T10:16:55.043Z,25.13
2019-05-19T10:17:55.102Z,25.14
2019-05-19T10:18:55.020Z,25.20
2019-05-19T10:19:55.015Z,25.18
2019-05-19T10:20:55.002Z,25.23
2019-05-19T10:21:55.026Z,25.30
2019-05-19T10:22:54.980Z,25.33
2019-05-19T10:23:54.972Z,25.38
2019-05-19T10:25:19.930Z,25.35
2019-05-19T10:25:55.948Z,25.33
2019-05-19T10:26:54.940Z,25.46
2019-05-19T10:27:54.965Z,25.50
2019-05-19T10:28:54.917Z,25.54
2019-05-19T10:29:54.908Z,25.42
2019-05-19T10:30:54.894Z,25.40
2019-05-19T10:31:54.887Z,25.42
2019-05-19T10:32:54.875Z,25.40
2019-05-19T10:33:54.901Z,25.32
2019-05-19T10:34:54.852Z,25.39
2019-05-19T10:35:54.841Z,25.43
2019-05-19T10:36:54.830Z,25.38
2019-05-19T10:37:54.819Z,25.32
2019-05-19T10:38:54.811Z,25.21
2019-05-19T10:39:54.833Z,25.40
2019-05-19T10:40:54.789Z,25.33
2019-05-19T10:41:54.777Z,25.36
2019-05-19T10:42:54.764Z,25.47
2019-05-19T10:43:54.756Z,25.60
2019-05-19T10:44:54.745Z,25.62
2019-05-19T10:45:54.772Z,25.65
2019-05-19T10:46:54.722Z,25.83
2019-05-19T10:47:54.712Z,25.87
2019-05-19T10:48:54.705Z,25.88
2019-05-19T10:49:54.691Z,25.98
2019-05-19T10:50:54.679Z,26.12
2019-05-19T10:51:54.707Z,26.23
2019-05-19T10:52:54.659Z,26.37
2019-05-19T10:53:54.648Z,26.51
2019-05-19T10:54:54.641Z,26.60
2019-05-19T10:55:54.628Z,26.70
2019-05-19T10:56:54.622Z,26.81
2019-05-19T10:57:54.669Z,26.87
2019-05-19T10:58:54.594Z,26.76
2019-05-19T10:59:54.582Z,26.75
2019-05-19T11:00:54.572Z,26.77
2019-05-19T11:01:54.563Z,26.94
2019-05-19T11:02:54.549Z,26.88
2019-05-19T11:03:54.578Z,26.91
2019-05-19T11:04:54.529Z,26.82
2019-05-19T11:05:54.521Z,26.89
2019-05-19T11:06:54.508Z,26.65
2019-05-19T11:07:54.498Z,26.33
2019-05-19T11:08:54.487Z,26.33
2019-05-19T11:09:54.513Z,26.47
2019-05-19T11:10:54.465Z,26.82
2019-05-19T11:11:54.455Z,26.85
2019-05-19T11:12:54.446Z,26.95
2019-05-19T11:13:54.442Z,27.10
2019-05-19T11:14:54.423Z,27.67
2019-05-19T11:15:54.449Z,27.84
2019-05-19T11:16:54.401Z,27.43
2019-05-19T11:17:54.393Z,27.10
2019-05-19T11:18:54.388Z,26.69
2019-05-19T11:19:54.369Z,26.69
2019-05-19T11:20:54.357Z,26.92
2019-05-19T11:21:54.383Z,27.60
2019-05-19T11:22:54.336Z,27.44
2019-05-19T11:23:54.325Z,27.07
2019-05-19T11:24:54.315Z,27.55
2019-05-19T11:25:54.303Z,28.33
2019-05-19T11:26:54.293Z,27.94
2019-05-19T11:27:54.323Z,27.69
2019-05-19T11:28:54.272Z,27.27
2019-05-19T11:29:54.295Z,27.22
2019-05-19T11:30:54.251Z,27.55
2019-05-19T11:31:54.241Z,27.24
2019-05-19T11:32:54.241Z,27.84
2019-05-19T11:33:54.256Z,28.73
2019-05-19T11:34:54.217Z,29.24
2019-05-19T11:35:54.198Z,30.00
2019-05-19T11:36:54.189Z,30.57
2019-05-19T11:37:54.178Z,30.97
2019-05-19T11:38:54.168Z,30.83
2019-05-19T11:39:54.193Z,31.47
2019-05-19T11:40:54.146Z,31.84
2019-05-19T11:41:54.134Z,32.06
2019-05-19T11:42:54.126Z,31.91
2019-05-19T11:43:54.116Z,31.78
2019-05-19T11:44:54.102Z,32.01
2019-05-19T11:45:54.128Z,32.04
2019-05-19T11:46:54.083Z,32.38
2019-05-19T11:47:54.071Z,32.21
2019-05-19T11:48:54.063Z,32.45
2019-05-19T11:49:54.052Z,32.47
2019-05-19T11:50:54.041Z,32.57
2019-05-19T11:51:54.069Z,32.72
2019-05-19T11:52:54.025Z,32.26
2019-05-19T11:53:54.010Z,32.72
2019-05-19T11:54:53.998Z,32.97
2019-05-19T11:56:05.680Z,32.21
2019-05-19T11:56:55.015Z,31.39
2019-05-19T11:57:54.053Z,31.63
2019-05-19T11:58:53.967Z,32.07
2019-05-19T11:59:53.947Z,32.29
2019-05-19T12:00:53.938Z,32.47
2019-05-19T12:01:53.929Z,32.59
2019-05-19T12:02:53.952Z,32.57
2019-05-19T12:03:55.540Z,31.84
2019-05-19T12:04:53.903Z,31.61
2019-05-19T12:05:53.902Z,31.96
2019-05-19T12:06:53.876Z,32.26
2019-05-19T12:07:53.864Z,32.35
2019-05-19T12:08:53.892Z,32.72
2019-05-19T12:09:53.845Z,33.07
2019-05-19T12:10:53.837Z,33.42
2019-05-19T12:11:53.825Z,33.84
2019-05-19T12:12:53.815Z,34.00
2019-05-19T12:13:53.806Z,34.28
2019-05-19T12:14:53.833Z,34.30
2019-05-19T12:15:53.831Z,34.52
2019-05-19T12:16:53.806Z,34.64
2019-05-19T12:17:53.763Z,34.53
2019-05-19T12:18:57.344Z,33.38
2019-05-19T12:19:53.742Z,32.70
2019-05-19T12:20:53.768Z,32.72
2019-05-19T12:21:53.720Z,33.15
2019-05-19T12:22:53.714Z,33.59
2019-05-19T12:23:53.702Z,33.86
2019-05-19T12:24:53.689Z,33.75
2019-05-19T12:25:53.685Z,34.00
2019-05-19T12:26:53.802Z,34.30
2019-05-19T12:27:53.661Z,34.13
2019-05-19T12:28:53.652Z,34.09
2019-05-19T12:29:53.640Z,33.72
2019-05-19T12:30:53.632Z,33.59
2019-05-19T12:31:53.619Z,33.57
2019-05-19T12:32:53.647Z,33.60
2019-05-19T12:33:53.601Z,34.00
2019-05-19T12:34:53.591Z,34.30
2019-05-19T12:35:53.610Z,34.75
2019-05-19T12:36:53.572Z,35.19
2019-05-19T12:37:53.560Z,35.56
2019-05-19T12:38:53.586Z,35.84
2019-05-19T12:39:53.559Z,36.16
2019-05-19T12:40:53.539Z,35.94
2019-05-19T12:41:53.521Z,35.87
2019-05-19T12:42:53.540Z,36.12
2019-05-19T12:43:53.508Z,36.22
2019-05-19T12:44:53.529Z,35.82
2019-05-19T12:45:53.496Z,35.50
2019-05-19T12:46:53.490Z,35.75
2019-05-19T12:47:53.463Z,36.27
2019-05-19T12:48:53.452Z,36.39
2019-05-19T12:49:53.443Z,36.41
2019-05-19T12:50:53.469Z,36.09
2019-05-19T12:51:53.425Z,35.96